We konden geen weer-waarchuwingen ophalen. Ga rechtstreeks naar de Meteoalarm site : www.meteoalarm.eu en controleer daar .


Onweer radar Meer informatie blitzortung!


Regen radar Meer informatie rain snow radar



METAR rapporten vliegvelden

   
EHGR - Dalem
Gewijzigd: 03-03-2024 00:55
Bewolking  
Bewolking  
   Wind: ZO 4.1 m/s
Wind: ZO 4.1 m/s
Temperatuur: 11°C
Dauwpunt: 5°C
Vochtigheid: 67%
Barometer: 997 hPa
Bewolking: Bewolking
Zicht: meer dan 10 km
Bewolking: Licht bewolkt 4500 ft,
Grotendeels bewolkt 4900 ft,
Bewolking 9600 ft
EHGR 022355Z AUTO 13008KT 100V160 9999 FEW045 BKN049 OVC096 11/05 Q0997 BLU
EHGR - Roosendaal
Gewijzigd: 03-03-2024 00:55
Bewolking  
Bewolking  
   Wind: ZO 4.1 m/s
Wind: ZO 4.1 m/s
Temperatuur: 11°C
Dauwpunt: 5°C
Vochtigheid: 67%
Barometer: 997 hPa
Bewolking: Bewolking
Zicht: meer dan 10 km
Bewolking: Licht bewolkt 4500 ft,
Grotendeels bewolkt 4900 ft,
Bewolking 9600 ft
EHGR 022355Z AUTO 13008KT 100V160 9999 FEW045 BKN049 OVC096 11/05 Q0997 BLU
EHRD - Rotterdam
Gewijzigd: 03-03-2024 00:55
Grotendeels bewolkt  
Grotendeels bewolkt  
   Wind: ZO 5.1 m/s
Wind: ZO 5.1 m/s
Temperatuur: 11°C
Dauwpunt: 6°C
Vochtigheid: 72%
Barometer: 997 hPa
Bewolking: Grotendeels bewolkt
Zicht: meer dan 10 km
Bewolking: Grotendeels bewolkt 3800 ft,
Grotendeels bewolkt 4800 ft
EHRD 022355Z AUTO 14010KT 110V170 9999 BKN038/// BKN048/// 11/06 Q0997 NOSIG
EHLW - Urk
Gewijzigd: 03-03-2024 00:55
Grotendeels bewolkt  
Grotendeels bewolkt  
   Wind: OZO 5.1 m/s
Wind: OZO 5.1 m/s
Temperatuur: 9°C
Voelt als: 6°C
Dauwpunt: 4°C
Vochtigheid: 71%
Barometer: 1000 hPa
Bewolking: Grotendeels bewolkt
Zicht: meer dan 10 km
Bewolking: Grotendeels bewolkt 25000 ft
EHLW 022355Z AUTO 12010KT 070V160 9999 BKN250 09/04 Q1000 BLU
EHDL - Veenendaal
Gewijzigd: 03-03-2024 00:55
Bewolking  
Bewolking  
   Wind: ZO 5.1 m/s
Wind: ZO 5.1 m/s
Temperatuur: 11°C
Dauwpunt: 4°C
Vochtigheid: 62%
Barometer: 999 hPa
Bewolking: Bewolking
Zicht: meer dan 10 km
Bewolking: Gedeeltelijk bewolkt 6000 ft,
Bewolking 6800 ft
EHDL 022355Z AUTO 13010KT 070V200 9999 SCT060 OVC068 11/04 Q0999 BLU
EHRD - Vianen
Gewijzigd: 03-03-2024 00:55
Grotendeels bewolkt  
Grotendeels bewolkt  
   Wind: ZO 5.1 m/s
Wind: ZO 5.1 m/s
Temperatuur: 11°C
Dauwpunt: 6°C
Vochtigheid: 72%
Barometer: 997 hPa
Bewolking: Grotendeels bewolkt
Zicht: meer dan 10 km
Bewolking: Grotendeels bewolkt 3800 ft,
Grotendeels bewolkt 4800 ft
EHRD 022355Z AUTO 14010KT 110V170 9999 BKN038/// BKN048/// 11/06 Q0997 NOSIG

Script ontwikkeld door  Saratoga-weather.org Aangepast voor de template door  Weerstation Leuven

U vindt ons ook hier:

Het Weer Aktueel

UK Metoffice

European Weather Network

WeatherCloud

Weather Underground

AWEKAS

Citizen Weather Observer Program (CWOP)

HAMweather, WeatherForYou, PWS Weather

Apparatuur in gebruik:

Weerstation
Davis VP2 weatherstation

Weerprogramma
Meteobridge

Weercomputer
Asus WL_330N3G

Davis VP2 weatherstation

Meteobridge

Asus WL_330N3G